Terminal Aerodrome Forecast
Issued by NWS Bismarck, ND

Home | Current Version | Previous Version | Graphics & Text | Print | Product List | Glossary On
Versions: 1 2 3 4 5 6 7 8 9 10 11 12 13 14 15 16 17 18
000
FTUS43 KBIS 301739
TAFISN
TAF
KISN 301739Z 3018/3118 01015G18KT 5SM FU VCSH SCT080 BKN120
      TEMPO 3018/3020 3SM FU BKN080
     FM310000 34008KT P6SM SCT080 BKN150 BKN250
     FM311500 30014G23KT P6SM SCT080 SCT150=

USA.gov is the U.S. government's official web portal to all federal, state and local government web resources and services.